Karen Pape — WDF9420 — position and weather

sailwx.info

Track history (hours):
 
Tides and Currents Weather Stations Pressure Air Temp Water Temp Dewpoint Dewpoint Depression Visibility Wind Speed Wind Dir Waves Ship Positions

Karen Pape

Owner: Genesis Marine, LLC, Houston, TX. More information available from US FCC via Universal Licensing System and Coast Guard Vessel Documentation Center.

Last reported at 2017-Nov-19 08:48 UTC. Time now 2017-Nov-23 07:55 UTC.
Position N 30°04' W 093°40'.

Length 26 m; draft 3.4 m.

Type: Towing. MMSI: 367504970.

Date/timePositionNaut miles runAvg speedWind from/ knotsBaromVisibWave heightAir tempDewpointWater temp
2017-Nov-19 08:48N 30°04' W 093°40'2 6.3
2017-Nov-19 08:30N 30°04' W 093°38'3 5.6
2017-Nov-19 07:59N 30°04' W 093°35'2 4.9
2017-Nov-19 07:30N 30°04' W 093°32'2 5.0
2017-Nov-19 07:01N 30°04' W 093°29'2 4.9
2017-Nov-19 06:31N 30°04' W 093°26'2 4.7
2017-Nov-19 06:00N 30°04' W 093°24'2 4.1
2017-Nov-19 05:31N 30°04' W 093°21'1 2.9
2017-Nov-19 05:01N 30°05' W 093°20'2 3.9
2017-Nov-19 04:31N 30°06' W 093°19'1 2.6
2017-Nov-19 04:01N 30°05' W 093°18'1 2.3
2017-Nov-19 03:30N 30°04' W 093°16'0 0.4
2017-Nov-19 03:01N 30°04' W 093°16'0 0.0
2017-Nov-19 02:31N 30°04' W 093°16'0 0.0
2017-Nov-19 02:01N 30°04' W 093°16'0 0.0
2017-Nov-19 01:31N 30°04' W 093°16'0 0.0
2017-Nov-19 01:01N 30°04' W 093°16'0 0.0
2017-Nov-19 00:31N 30°04' W 093°16'0 0.0
2017-Nov-19 00:01N 30°04' W 093°16'0 0.0
2017-Nov-18 23:31N 30°04' W 093°16'0 0.0
2017-Nov-18 23:01N 30°04' W 093°16'0 0.0
2017-Nov-18 22:31N 30°04' W 093°16'0 0.0
2017-Nov-18 22:01N 30°04' W 093°16'0 0.0
2017-Nov-18 21:31N 30°04' W 093°16'0 0.0
2017-Nov-18 21:01N 30°04' W 093°16'0 0.0
2017-Nov-18 20:31N 30°04' W 093°16'0 0.0
2017-Nov-18 20:00N 30°04' W 093°16'0 0.0
2017-Nov-18 19:31N 30°04' W 093°16'0 0.0
2017-Nov-18 19:01N 30°04' W 093°16'0 0.1
2017-Nov-18 18:31N 30°04' W 093°16'0 0.0
2017-Nov-18 18:01N 30°04' W 093°16'0 0.0
2017-Nov-18 17:30N 30°04' W 093°16'0 0.0
2017-Nov-18 17:01N 30°04' W 093°16'0 0.0
2017-Nov-18 16:31N 30°04' W 093°16'0 0.0
2017-Nov-18 16:01N 30°04' W 093°16'0 0.2
2017-Nov-18 15:31N 30°04' W 093°16'0 0.8
2017-Nov-18 15:00N 30°04' W 093°16'2 3.8
2017-Nov-18 14:31N 30°02' W 093°15'2 4.2
2017-Nov-18 14:01N 30°01' W 093°14'1 2.2
2017-Nov-18 13:30N 29°60' W 093°13'2 4.2
2017-Nov-18 13:01N 29°58' W 093°11'2 4.7
2017-Nov-18 12:31N 29°56' W 093°10'2 4.5
2017-Nov-18 12:01N 29°56' W 093°07'2 4.5
2017-Nov-18 11:30N 29°56' W 093°05'2 4.7
2017-Nov-18 10:59N 29°56' W 093°02'35 4.4
2017-Nov-18 03:07N 29°51' W 092°22'1 4.2
2017-Nov-18 02:59N 29°51' W 092°22'2 4.5
2017-Nov-18 02:31N 29°50' W 092°19'2 3.7
2017-Nov-18 02:01N 29°49' W 092°17'2 4.0
2017-Nov-18 01:31N 29°48' W 092°15'2 4.7
2017-Nov-18 01:00N 29°47' W 092°13'1 1.6
2017-Nov-18 00:31N 29°47' W 092°12'1 2.3
2017-Nov-18 00:01N 29°47' W 092°11'1 1.7
2017-Nov-17 23:31N 29°47' W 092°10'1 2.8
2017-Nov-17 23:01N 29°47' W 092°08'2 4.0
2017-Nov-17 22:31N 29°48' W 092°06'2 4.9
2017-Nov-17 22:01N 29°49' W 092°04'3 5.1
2017-Nov-17 21:31N 29°49' W 092°01'3 5.2
2017-Nov-17 21:01N 29°50' W 091°58'3 4.9
2017-Nov-17 20:27N 29°51' W 091°55'51 4.3
2017-Nov-17 08:30N 29°36' W 090°58'3 5.0
2017-Nov-17 07:57N 29°34' W 090°56'3 5.7
2017-Nov-17 07:30N 29°33' W 090°54'3 5.3
2017-Nov-17 06:59N 29°32' W 090°51'3 5.5
2017-Nov-17 06:30N 29°32' W 090°48'2 4.2
2017-Nov-17 06:01N 29°33' W 090°45'2 3.7
2017-Nov-17 05:30N 29°34' W 090°44'2 3.5
2017-Nov-17 05:01N 29°35' W 090°43'1 3.0
2017-Nov-17 04:31N 29°37' W 090°42'2 4.2
2017-Nov-17 04:00N 29°36' W 090°40'2 4.3
2017-Nov-17 03:31N 29°35' W 090°38'2 4.0
2017-Nov-17 03:00N 29°35' W 090°35'2 4.4
2017-Nov-17 02:31N 29°34' W 090°33'2 4.5
2017-Nov-17 02:00N 29°34' W 090°30'2 4.7
2017-Nov-17 01:30N 29°33' W 090°28'2 4.7
2017-Nov-17 01:00N 29°33' W 090°25'26 0.6
2017-Nov-15 07:51N 29°59' W 090°24'2 4.4
2017-Nov-15 07:29N 29°57' W 090°24'0 0.1
2017-Nov-15 06:55N 29°57' W 090°24'0 0.0
2017-Nov-15 06:30N 29°57' W 090°24'0 0.0
2017-Nov-15 05:13N 29°57' W 090°24'0 0.0
2017-Nov-15 05:00N 29°57' W 090°24'0 0.0
2017-Nov-15 03:36N 29°57' W 090°24'0 0.0
2017-Nov-15 03:30N 29°57' W 090°24'  
2017-Nov-11 15:17N 29°34' W 090°28'1 4.7
2017-Nov-11 14:58N 29°34' W 090°30'2 5.0
2017-Nov-11 14:30N 29°34' W 090°33'3 5.1
2017-Nov-11 14:01N 29°35' W 090°35'2 4.7
2017-Nov-11 13:30N 29°35' W 090°38'2 4.8
2017-Nov-11 13:00N 29°36' W 090°41'2 3.5
2017-Nov-11 12:30N 29°36' W 090°43'2 4.7
2017-Nov-11 12:01N 29°34' W 090°43'2 3.7
2017-Nov-11 11:31N 29°33' W 090°45'2 3.7
2017-Nov-11 11:01N 29°32' W 090°47'3 5.3
2017-Nov-11 10:31N 29°32' W 090°50'2 4.6
2017-Nov-11 10:00N 29°32' W 090°53'3 5.3
2017-Nov-11 09:30N 29°34' W 090°56'3 5.7
2017-Nov-11 09:00N 29°35' W 090°58'53 2.5
2017-Nov-10 12:01N 29°51' W 091°57'0 4.8
2017-Nov-10 12:00N 29°51' W 091°57'3 5.1
2017-Nov-10 11:31N 29°50' W 091°59'3 5.5
2017-Nov-10 11:01N 29°49' W 092°02'3 5.5
2017-Nov-10 10:30N 29°48' W 092°05'3 5.5
2017-Nov-10 10:01N 29°47' W 092°08'2 4.5
2017-Nov-10 09:31N 29°47' W 092°11'1 2.7
2017-Nov-10 09:01N 29°47' W 092°12'1 1.6
2017-Nov-10 08:30N 29°48' W 092°13'0 0.1
2017-Nov-10 08:01N 29°48' W 092°13'2 4.0
2017-Nov-10 07:31N 29°48' W 092°15'2 4.6
2017-Nov-10 07:01N 29°50' W 092°18'2 4.3
2017-Nov-10 06:31N 29°51' W 092°20'2 4.1
2017-Nov-10 06:01N 29°52' W 092°22'2 4.6
2017-Nov-10 05:31N 29°53' W 092°24'3 5.1
2017-Nov-10 05:01N 29°54' W 092°27'32 4.8
2017-Nov-09 22:21N 29°56' W 093°03'2 4.6
2017-Nov-09 22:00N 29°56' W 093°05'2 4.6
2017-Nov-09 21:30N 29°56' W 093°08'2 4.2
2017-Nov-09 21:01N 29°57' W 093°10'2 4.5
2017-Nov-09 20:31N 29°59' W 093°12'2 4.3
2017-Nov-09 20:01N 30°00' W 093°14'2 3.4
2017-Nov-09 19:31N 30°02' W 093°14'2 3.8
2017-Nov-09 19:01N 30°03' W 093°16'2 4.4
2017-Nov-09 18:30N 30°05' W 093°17'1 3.0
2017-Nov-09 18:01N 30°06' W 093°18'2 4.2
2017-Nov-09 17:31N 30°05' W 093°20'2 3.9
2017-Nov-09 17:00N 30°04' W 093°22'2 4.7
2017-Nov-09 16:31N 30°04' W 093°25'2 4.9
2017-Nov-09 16:01N 30°04' W 093°27'2 4.9
2017-Nov-09 15:31N 30°04' W 093°30'2 4.8
2017-Nov-09 15:01N 30°04' W 093°33'2 4.6
2017-Nov-09 14:30N 30°04' W 093°36'2 4.7
2017-Nov-09 14:01N 30°04' W 093°39'2 4.5
2017-Nov-09 13:30N 30°03' W 093°41'  
Track history (hours):
 
Tides and Currents Weather Stations Pressure Air Temp Water Temp Dewpoint Dewpoint Depression Visibility Wind Speed Wind Dir Waves Ship Positions

Karen Pape

Owner: Genesis Marine, LLC, Houston, TX. More information available from US FCC via Universal Licensing System and Coast Guard Vessel Documentation Center.

Last reported at 2017-Nov-19 08:48 UTC. Time now 2017-Nov-23 07:55 UTC.
Position N 30°04' W 093°40'.

Length 26 m; draft 3.4 m.

Type: Towing. MMSI: 367504970.

Date/timePositionNaut miles runAvg speedWind from/ knotsBaromVisibWave heightAir tempDewpointWater temp
2017-Nov-19 08:48N 30°04' W 093°40'2 6.3
2017-Nov-19 08:30N 30°04' W 093°38'3 5.6
2017-Nov-19 07:59N 30°04' W 093°35'2 4.9
2017-Nov-19 07:30N 30°04' W 093°32'2 5.0
2017-Nov-19 07:01N 30°04' W 093°29'2 4.9
2017-Nov-19 06:31N 30°04' W 093°26'2 4.7
2017-Nov-19 06:00N 30°04' W 093°24'2 4.1
2017-Nov-19 05:31N 30°04' W 093°21'1 2.9
2017-Nov-19 05:01N 30°05' W 093°20'2 3.9
2017-Nov-19 04:31N 30°06' W 093°19'1 2.6
2017-Nov-19 04:01N 30°05' W 093°18'1 2.3
2017-Nov-19 03:30N 30°04' W 093°16'0 0.4
2017-Nov-19 03:01N 30°04' W 093°16'0 0.0
2017-Nov-19 02:31N 30°04' W 093°16'0 0.0
2017-Nov-19 02:01N 30°04' W 093°16'0 0.0
2017-Nov-19 01:31N 30°04' W 093°16'0 0.0
2017-Nov-19 01:01N 30°04' W 093°16'0 0.0
2017-Nov-19 00:31N 30°04' W 093°16'0 0.0
2017-Nov-19 00:01N 30°04' W 093°16'0 0.0
2017-Nov-18 23:31N 30°04' W 093°16'0 0.0
2017-Nov-18 23:01N 30°04' W 093°16'0 0.0
2017-Nov-18 22:31N 30°04' W 093°16'0 0.0
2017-Nov-18 22:01N 30°04' W 093°16'0 0.0
2017-Nov-18 21:31N 30°04' W 093°16'0 0.0
2017-Nov-18 21:01N 30°04' W 093°16'0 0.0
2017-Nov-18 20:31N 30°04' W 093°16'0 0.0
2017-Nov-18 20:00N 30°04' W 093°16'0 0.0
2017-Nov-18 19:31N 30°04' W 093°16'0 0.0
2017-Nov-18 19:01N 30°04' W 093°16'0 0.1
2017-Nov-18 18:31N 30°04' W 093°16'0 0.0
2017-Nov-18 18:01N 30°04' W 093°16'0 0.0
2017-Nov-18 17:30N 30°04' W 093°16'0 0.0
2017-Nov-18 17:01N 30°04' W 093°16'0 0.0
2017-Nov-18 16:31N 30°04' W 093°16'0 0.0
2017-Nov-18 16:01N 30°04' W 093°16'0 0.2
2017-Nov-18 15:31N 30°04' W 093°16'0 0.8
2017-Nov-18 15:00N 30°04' W 093°16'2 3.8
2017-Nov-18 14:31N 30°02' W 093°15'2 4.2
2017-Nov-18 14:01N 30°01' W 093°14'1 2.2
2017-Nov-18 13:30N 29°60' W 093°13'2 4.2
2017-Nov-18 13:01N 29°58' W 093°11'2 4.7
2017-Nov-18 12:31N 29°56' W 093°10'2 4.5
2017-Nov-18 12:01N 29°56' W 093°07'2 4.5
2017-Nov-18 11:30N 29°56' W 093°05'2 4.7
2017-Nov-18 10:59N 29°56' W 093°02'35 4.4
2017-Nov-18 03:07N 29°51' W 092°22'1 4.2
2017-Nov-18 02:59N 29°51' W 092°22'2 4.5
2017-Nov-18 02:31N 29°50' W 092°19'2 3.7
2017-Nov-18 02:01N 29°49' W 092°17'2 4.0
2017-Nov-18 01:31N 29°48' W 092°15'2 4.7
2017-Nov-18 01:00N 29°47' W 092°13'1 1.6
2017-Nov-18 00:31N 29°47' W 092°12'1 2.3
2017-Nov-18 00:01N 29°47' W 092°11'1 1.7
2017-Nov-17 23:31N 29°47' W 092°10'1 2.8
2017-Nov-17 23:01N 29°47' W 092°08'2 4.0
2017-Nov-17 22:31N 29°48' W 092°06'2 4.9
2017-Nov-17 22:01N 29°49' W 092°04'3 5.1
2017-Nov-17 21:31N 29°49' W 092°01'3 5.2
2017-Nov-17 21:01N 29°50' W 091°58'3 4.9
2017-Nov-17 20:27N 29°51' W 091°55'51 4.3
2017-Nov-17 08:30N 29°36' W 090°58'3 5.0
2017-Nov-17 07:57N 29°34' W 090°56'3 5.7
2017-Nov-17 07:30N 29°33' W 090°54'3 5.3
2017-Nov-17 06:59N 29°32' W 090°51'3 5.5
2017-Nov-17 06:30N 29°32' W 090°48'2 4.2
2017-Nov-17 06:01N 29°33' W 090°45'2 3.7
2017-Nov-17 05:30N 29°34' W 090°44'2 3.5
2017-Nov-17 05:01N 29°35' W 090°43'1 3.0
2017-Nov-17 04:31N 29°37' W 090°42'2 4.2
2017-Nov-17 04:00N 29°36' W 090°40'2 4.3
2017-Nov-17 03:31N 29°35' W 090°38'2 4.0
2017-Nov-17 03:00N 29°35' W 090°35'2 4.4
2017-Nov-17 02:31N 29°34' W 090°33'2 4.5
2017-Nov-17 02:00N 29°34' W 090°30'2 4.7
2017-Nov-17 01:30N 29°33' W 090°28'2 4.7
2017-Nov-17 01:00N 29°33' W 090°25'26 0.6
2017-Nov-15 07:51N 29°59' W 090°24'2 4.4
2017-Nov-15 07:29N 29°57' W 090°24'0 0.1
2017-Nov-15 06:55N 29°57' W 090°24'0 0.0
2017-Nov-15 06:30N 29°57' W 090°24'0 0.0
2017-Nov-15 05:13N 29°57' W 090°24'0 0.0
2017-Nov-15 05:00N 29°57' W 090°24'0 0.0
2017-Nov-15 03:36N 29°57' W 090°24'0 0.0
2017-Nov-15 03:30N 29°57' W 090°24'  
2017-Nov-11 15:17N 29°34' W 090°28'1 4.7
2017-Nov-11 14:58N 29°34' W 090°30'2 5.0
2017-Nov-11 14:30N 29°34' W 090°33'3 5.1
2017-Nov-11 14:01N 29°35' W 090°35'2 4.7
2017-Nov-11 13:30N 29°35' W 090°38'2 4.8
2017-Nov-11 13:00N 29°36' W 090°41'2 3.5
2017-Nov-11 12:30N 29°36' W 090°43'2 4.7
2017-Nov-11 12:01N 29°34' W 090°43'2 3.7
2017-Nov-11 11:31N 29°33' W 090°45'2 3.7
2017-Nov-11 11:01N 29°32' W 090°47'3 5.3
2017-Nov-11 10:31N 29°32' W 090°50'2 4.6
2017-Nov-11 10:00N 29°32' W 090°53'3 5.3
2017-Nov-11 09:30N 29°34' W 090°56'3 5.7
2017-Nov-11 09:00N 29°35' W 090°58'53 2.5
2017-Nov-10 12:01N 29°51' W 091°57'0 4.8
2017-Nov-10 12:00N 29°51' W 091°57'3 5.1
2017-Nov-10 11:31N 29°50' W 091°59'3 5.5
2017-Nov-10 11:01N 29°49' W 092°02'3 5.5
2017-Nov-10 10:30N 29°48' W 092°05'3 5.5
2017-Nov-10 10:01N 29°47' W 092°08'2 4.5
2017-Nov-10 09:31N 29°47' W 092°11'1 2.7
2017-Nov-10 09:01N 29°47' W 092°12'1 1.6
2017-Nov-10 08:30N 29°48' W 092°13'0 0.1
2017-Nov-10 08:01N 29°48' W 092°13'2 4.0
2017-Nov-10 07:31N 29°48' W 092°15'2 4.6
2017-Nov-10 07:01N 29°50' W 092°18'2 4.3
2017-Nov-10 06:31N 29°51' W 092°20'2 4.1
2017-Nov-10 06:01N 29°52' W 092°22'2 4.6
2017-Nov-10 05:31N 29°53' W 092°24'3 5.1
2017-Nov-10 05:01N 29°54' W 092°27'32 4.8
2017-Nov-09 22:21N 29°56' W 093°03'2 4.6
2017-Nov-09 22:00N 29°56' W 093°05'2 4.6
2017-Nov-09 21:30N 29°56' W 093°08'2 4.2
2017-Nov-09 21:01N 29°57' W 093°10'2 4.5
2017-Nov-09 20:31N 29°59' W 093°12'2 4.3
2017-Nov-09 20:01N 30°00' W 093°14'2 3.4
2017-Nov-09 19:31N 30°02' W 093°14'2 3.8
2017-Nov-09 19:01N 30°03' W 093°16'2 4.4
2017-Nov-09 18:30N 30°05' W 093°17'1 3.0
2017-Nov-09 18:01N 30°06' W 093°18'2 4.2
2017-Nov-09 17:31N 30°05' W 093°20'2 3.9
2017-Nov-09 17:00N 30°04' W 093°22'2 4.7
2017-Nov-09 16:31N 30°04' W 093°25'2 4.9
2017-Nov-09 16:01N 30°04' W 093°27'2 4.9
2017-Nov-09 15:31N 30°04' W 093°30'2 4.8
2017-Nov-09 15:01N 30°04' W 093°33'2 4.6
2017-Nov-09 14:30N 30°04' W 093°36'2 4.7
2017-Nov-09 14:01N 30°04' W 093°39'2 4.5
2017-Nov-09 13:30N 30°03' W 093°41'  

Dump ship's entire track history